createdAt,value
2019-02-20T00:00:04.878Z,84.09
2019-02-20T00:02:33.816Z,83.99
2019-02-20T00:05:02.372Z,84.43
2019-02-20T00:07:30.936Z,84.39
2019-02-20T00:09:59.788Z,84.72
2019-02-20T00:12:28.378Z,84.72
2019-02-20T00:14:56.952Z,84.43
2019-02-20T00:17:25.534Z,84.65
2019-02-20T00:19:54.167Z,84.68
2019-02-20T00:22:22.730Z,84.51
2019-02-20T00:24:51.290Z,83.83
2019-02-20T00:27:19.913Z,83.25
2019-02-20T00:29:48.462Z,82.97
2019-02-20T00:32:17.031Z,83.07
2019-02-20T00:34:45.600Z,83.02
2019-02-20T00:37:14.158Z,82.60
2019-02-20T00:39:42.760Z,82.31
2019-02-20T00:42:11.338Z,82.79
2019-02-20T00:44:44.230Z,82.52
2019-02-20T00:47:14.434Z,82.34
2019-02-20T00:49:43.264Z,82.40
2019-02-20T00:52:16.126Z,82.32
2019-02-20T00:54:44.695Z,82.25
2019-02-20T00:57:13.265Z,82.15
2019-02-20T00:59:41.844Z,82.45
2019-02-20T01:02:10.706Z,82.55
2019-02-20T01:04:39.292Z,82.55
2019-02-20T01:07:07.874Z,82.82
2019-02-20T01:09:36.476Z,82.90
2019-02-20T01:12:05.221Z,82.85
2019-02-20T01:14:33.775Z,83.07
2019-02-20T01:17:02.785Z,83.36
2019-02-20T01:19:31.376Z,82.98
2019-02-20T01:22:00.147Z,83.27
2019-02-20T01:24:28.694Z,83.46
2019-02-20T01:26:57.275Z,83.27
2019-02-20T01:29:25.858Z,83.43
2019-02-20T01:31:54.426Z,83.66
2019-02-20T01:34:22.972Z,83.00
2019-02-20T01:36:51.540Z,83.24
2019-02-20T01:39:20.089Z,83.42
2019-02-20T01:41:48.698Z,83.34
2019-02-20T01:44:17.235Z,83.80
2019-02-20T01:46:45.796Z,83.16
2019-02-20T01:49:14.384Z,83.09
2019-02-20T01:51:44.963Z,82.52
2019-02-20T01:54:13.264Z,82.37
2019-02-20T01:56:41.819Z,82.68
2019-02-20T01:59:10.386Z,82.15
2019-02-20T02:01:38.976Z,82.34
2019-02-20T02:04:07.540Z,82.62
2019-02-20T02:06:36.123Z,82.34
2019-02-20T02:09:06.986Z,82.25
2019-02-20T02:11:35.570Z,81.88
2019-02-20T02:14:04.327Z,81.81
2019-02-20T02:16:32.906Z,81.58
2019-02-20T02:19:01.533Z,81.50
2019-02-20T02:21:30.083Z,81.38
2019-02-20T02:23:58.684Z,81.52
2019-02-20T02:26:27.232Z,81.12
2019-02-20T02:28:55.782Z,80.98
2019-02-20T02:31:24.333Z,81.41
2019-02-20T02:33:53.900Z,81.43
2019-02-20T02:36:22.456Z,81.08
2019-02-20T02:38:51.022Z,81.08
2019-02-20T02:41:19.577Z,81.09
2019-02-20T02:43:48.138Z,81.12
2019-02-20T02:46:16.690Z,80.77
2019-02-20T02:48:45.564Z,80.41
2019-02-20T02:51:14.130Z,80.41
2019-02-20T02:53:42.727Z,80.13
2019-02-20T02:56:11.272Z,80.42
2019-02-20T02:58:39.841Z,80.25
2019-02-20T03:01:08.699Z,80.72
2019-02-20T03:03:37.567Z,80.72
2019-02-20T03:06:06.135Z,81.01
2019-02-20T03:08:34.983Z,80.71
2019-02-20T03:11:03.857Z,81.27
2019-02-20T03:13:32.420Z,81.27
2019-02-20T03:16:01.285Z,81.03
2019-02-20T03:18:29.841Z,81.03
2019-02-20T03:20:58.699Z,81.09
2019-02-20T03:23:27.569Z,81.20
2019-02-20T03:25:56.431Z,81.49
2019-02-20T03:28:25.303Z,81.84
2019-02-20T03:30:53.892Z,81.84
2019-02-20T03:33:22.744Z,81.92
2019-02-20T03:35:51.607Z,81.92
2019-02-20T03:38:30.107Z,81.95
2019-02-20T03:40:50.782Z,81.99
2019-02-20T03:43:19.638Z,82.10
2019-02-20T03:45:48.502Z,82.38
2019-02-20T03:48:17.343Z,82.10
2019-02-20T03:50:46.236Z,82.06
2019-02-20T03:53:15.084Z,82.06
2019-02-20T03:55:43.977Z,82.51
2019-02-20T03:58:12.699Z,82.54
2019-02-20T04:00:41.567Z,82.42
2019-02-20T04:03:10.452Z,82.42
2019-02-20T04:05:39.017Z,82.65
2019-02-20T04:08:07.592Z,82.47
2019-02-20T04:10:36.183Z,82.45
2019-02-20T04:13:04.735Z,82.36
2019-02-20T04:15:33.627Z,82.28
2019-02-20T04:18:02.254Z,82.18
2019-02-20T04:20:31.119Z,82.03
2019-02-20T04:22:59.690Z,82.17
2019-02-20T04:25:28.580Z,81.97
2019-02-20T04:27:57.135Z,81.91
2019-02-20T04:30:26.468Z,81.67
2019-02-20T04:33:00.600Z,81.62
2019-02-20T04:35:29.272Z,81.58
2019-02-20T04:37:57.837Z,81.73
2019-02-20T04:40:26.407Z,81.76
2019-02-20T04:42:54.958Z,81.71
2019-02-20T04:45:23.536Z,81.61
2019-02-20T04:47:52.119Z,81.38
2019-02-20T04:50:20.755Z,81.25
2019-02-20T04:52:49.321Z,80.97
2019-02-20T04:55:17.879Z,81.04
2019-02-20T04:57:46.469Z,81.04
2019-02-20T05:00:15.048Z,80.67
2019-02-20T05:02:43.600Z,80.89
2019-02-20T05:05:12.246Z,80.42
2019-02-20T05:07:40.799Z,80.49
2019-02-20T05:10:10.612Z,80.57
2019-02-20T05:12:39.171Z,80.69
2019-02-20T05:15:08.125Z,80.45
2019-02-20T05:17:36.680Z,80.54
2019-02-20T05:20:08.637Z,80.92
2019-02-20T05:22:37.222Z,80.74
2019-02-20T05:25:06.065Z,80.44
2019-02-20T05:27:34.626Z,80.45
2019-02-20T05:30:03.222Z,80.02
2019-02-20T05:32:31.787Z,80.18
2019-02-20T05:35:00.518Z,79.69
2019-02-20T05:37:29.228Z,79.55
2019-02-20T05:39:57.779Z,79.38
2019-02-20T05:42:26.328Z,79.43
2019-02-20T05:44:54.897Z,79.27
2019-02-20T05:47:23.504Z,79.13
2019-02-20T05:49:52.088Z,79.14
2019-02-20T05:52:20.663Z,78.79
2019-02-20T05:54:49.238Z,79.08
2019-02-20T05:57:17.860Z,79.04
2019-02-20T05:59:46.384Z,79.00
2019-02-20T06:02:14.995Z,79.47
2019-02-20T06:04:43.572Z,79.16
2019-02-20T06:07:12.151Z,78.58
2019-02-20T06:09:40.787Z,78.61
2019-02-20T06:12:09.378Z,78.81
2019-02-20T06:14:37.966Z,78.73
2019-02-20T06:17:06.545Z,78.26
2019-02-20T06:19:35.123Z,78.22
2019-02-20T06:22:03.727Z,77.99
2019-02-20T06:24:32.273Z,78.02
2019-02-20T06:27:00.840Z,77.85
2019-02-20T06:29:29.423Z,77.70
2019-02-20T06:31:58.000Z,77.70
2019-02-20T06:34:26.552Z,77.59
2019-02-20T06:36:55.113Z,77.41
2019-02-20T06:39:23.746Z,77.54
2019-02-20T06:41:52.247Z,77.24
2019-02-20T06:44:20.799Z,76.60
2019-02-20T06:46:49.380Z,76.75
2019-02-20T06:49:17.969Z,76.73
2019-02-20T06:51:46.558Z,76.45
2019-02-20T06:54:20.170Z,76.48
2019-02-20T06:56:50.214Z,76.10
2019-02-20T06:59:19.004Z,75.88
2019-02-20T07:01:47.565Z,76.07
2019-02-20T07:04:16.125Z,75.47
2019-02-20T07:06:47.777Z,75.24
2019-02-20T07:09:24.815Z,75.64
2019-02-20T07:12:04.972Z,75.07
2019-02-20T07:14:42.181Z,74.87
2019-02-20T07:17:28.867Z,75.19
2019-02-20T07:20:33.971Z,74.92
2019-02-20T07:23:07.999Z,75.16
2019-02-20T07:25:45.665Z,75.04
2019-02-20T07:28:17.240Z,74.68
2019-02-20T07:30:45.851Z,74.89
2019-02-20T07:33:14.450Z,74.87
2019-02-20T07:35:43.034Z,75.16
2019-02-20T07:38:11.629Z,74.66
2019-02-20T07:40:40.199Z,73.82
2019-02-20T07:43:08.762Z,74.31
2019-02-20T07:45:37.345Z,74.85
2019-02-20T07:48:05.912Z,74.59
2019-02-20T07:50:34.508Z,74.67
2019-02-20T07:53:03.078Z,74.70
2019-02-20T07:55:31.642Z,73.99
2019-02-20T07:58:00.273Z,73.78
2019-02-20T08:00:28.823Z,73.89
2019-02-20T08:02:57.407Z,73.47
2019-02-20T08:05:25.999Z,73.83
2019-02-20T08:07:54.564Z,73.78
2019-02-20T08:10:23.179Z,72.68
2019-02-20T08:12:51.763Z,72.95
2019-02-20T08:15:20.399Z,72.54
2019-02-20T08:17:49.000Z,73.20
2019-02-20T08:20:17.563Z,73.33
2019-02-20T08:22:46.137Z,73.53
2019-02-20T08:25:22.580Z,73.28
2019-02-20T08:27:45.004Z,73.88
2019-02-20T08:30:14.919Z,74.05
2019-02-20T08:32:43.483Z,74.37
2019-02-20T08:35:12.994Z,74.35
2019-02-20T08:37:41.552Z,74.21
2019-02-20T08:40:12.864Z,74.21
2019-02-20T08:42:41.516Z,74.30
2019-02-20T08:45:11.522Z,74.23
2019-02-20T08:47:40.119Z,73.88
2019-02-20T08:50:13.417Z,73.92
2019-02-20T08:52:41.994Z,73.60
2019-02-20T08:55:11.211Z,73.20
2019-02-20T08:57:39.822Z,72.66
2019-02-20T09:00:11.398Z,71.98
2019-02-20T09:02:40.125Z,71.74
2019-02-20T09:05:10.565Z,71.38
2019-02-20T09:07:39.148Z,71.19
2019-02-20T09:10:12.581Z,70.94
2019-02-20T09:12:41.167Z,70.84
2019-02-20T09:15:12.273Z,70.46
2019-02-20T09:17:40.834Z,70.35
2019-02-20T09:20:11.259Z,70.32
2019-02-20T09:22:40.001Z,70.06
2019-02-20T09:25:19.175Z,70.09
2019-02-20T09:27:41.173Z,69.85
2019-02-20T09:30:14.367Z,69.67
2019-02-20T09:32:42.938Z,69.60
2019-02-20T09:35:11.591Z,69.43
2019-02-20T09:37:40.161Z,69.47
2019-02-20T09:40:18.811Z,70.15
2019-02-20T09:42:49.834Z,70.02
2019-02-20T09:45:18.406Z,70.07
2019-02-20T09:47:46.961Z,70.16
2019-02-20T09:50:17.525Z,69.81
2019-02-20T09:52:52.238Z,70.06
2019-02-20T09:55:16.436Z,69.36
2019-02-20T09:57:45.012Z,69.10
2019-02-20T10:00:18.180Z,68.78
2019-02-20T10:02:47.390Z,70.02
2019-02-20T10:05:16.101Z,69.20
2019-02-20T10:07:44.658Z,69.02
2019-02-20T10:10:13.729Z,68.98
2019-02-20T10:12:42.299Z,68.86
2019-02-20T10:15:20.347Z,69.02
2019-02-20T10:17:48.907Z,68.76
2019-02-20T10:20:17.464Z,68.91
2019-02-20T10:22:46.074Z,68.29
2019-02-20T10:25:14.650Z,68.28
2019-02-20T10:27:43.258Z,68.18
2019-02-20T10:30:17.476Z,68.05
2019-02-20T10:32:46.056Z,68.60
2019-02-20T10:35:14.698Z,68.41
2019-02-20T10:37:43.264Z,68.25
2019-02-20T10:40:12.407Z,67.15
2019-02-20T10:42:40.988Z,67.15
2019-02-20T10:45:13.324Z,67.19
2019-02-20T10:47:41.890Z,67.23
2019-02-20T10:50:12.020Z,67.04
2019-02-20T10:52:40.584Z,67.45
2019-02-20T10:55:10.080Z,67.44
2019-02-20T10:57:38.673Z,66.92
2019-02-20T11:00:23.355Z,67.01
2019-02-20T11:02:44.876Z,66.48
2019-02-20T11:05:13.486Z,66.38
2019-02-20T11:07:42.148Z,66.38
2019-02-20T11:10:10.827Z,65.97
2019-02-20T11:12:39.388Z,65.48
2019-02-20T11:15:08.643Z,65.40
2019-02-20T11:17:38.132Z,65.55
2019-02-20T11:20:11.230Z,64.92
2019-02-20T11:22:39.840Z,65.55
2019-02-20T11:25:10.739Z,65.45
2019-02-20T11:27:39.636Z,65.45
2019-02-20T11:30:17.027Z,65.36
2019-02-20T11:32:45.628Z,65.16
2019-02-20T11:35:14.194Z,65.31
2019-02-20T11:37:42.788Z,64.39
2019-02-20T11:40:11.361Z,64.39
2019-02-20T11:42:39.915Z,63.75
2019-02-20T11:45:16.707Z,64.40
2019-02-20T11:47:45.279Z,64.31
2019-02-20T11:50:14.071Z,65.13
2019-02-20T11:52:43.151Z,65.13
2019-02-20T11:55:13.345Z,64.57
2019-02-20T11:57:41.901Z,64.88
2019-02-20T12:00:15.838Z,64.67
2019-02-20T12:02:44.416Z,64.93
2019-02-20T12:05:13.187Z,65.41
2019-02-20T12:07:41.786Z,65.41
2019-02-20T12:10:15.438Z,65.37
2019-02-20T12:12:44.025Z,64.62
2019-02-20T12:15:12.666Z,64.62
2019-02-20T12:17:41.226Z,64.63
2019-02-20T12:20:09.954Z,64.63
2019-02-20T12:22:38.544Z,64.44
2019-02-20T12:25:08.967Z,64.66
2019-02-20T12:27:37.579Z,64.17
2019-02-20T12:30:11.380Z,64.25
2019-02-20T12:32:39.942Z,64.40
2019-02-20T12:35:09.574Z,64.05
2019-02-20T12:37:38.159Z,64.24
2019-02-20T12:40:11.119Z,64.05
2019-02-20T12:42:39.732Z,63.84
2019-02-20T12:45:09.263Z,63.95
2019-02-20T12:47:37.830Z,64.48
2019-02-20T12:50:13.827Z,63.96
2019-02-20T12:52:42.422Z,63.96
2019-02-20T12:55:11.298Z,63.76
2019-02-20T12:57:40.542Z,63.25
2019-02-20T13:00:15.613Z,63.20
2019-02-20T13:02:44.208Z,63.74
2019-02-20T13:05:12.854Z,62.99
2019-02-20T13:07:41.580Z,63.63
2019-02-20T13:10:10.615Z,62.90
2019-02-20T13:12:39.192Z,63.03
2019-02-20T13:15:09.888Z,63.03
2019-02-20T13:17:38.445Z,63.35
2019-02-20T13:20:09.379Z,63.24
2019-02-20T13:22:37.947Z,62.67
2019-02-20T13:25:09.579Z,62.67
2019-02-20T13:27:40.132Z,63.65
2019-02-20T13:30:15.037Z,63.65
2019-02-20T13:32:43.666Z,64.07
2019-02-20T13:35:12.220Z,63.58
2019-02-20T13:37:40.848Z,63.30
2019-02-20T13:40:11.066Z,63.23
2019-02-20T13:42:39.638Z,62.78
2019-02-20T13:45:09.489Z,62.98
2019-02-20T13:47:38.129Z,62.98
2019-02-20T13:50:11.569Z,63.22
2019-02-20T13:52:39.748Z,63.35
2019-02-20T13:55:08.511Z,62.84
2019-02-20T13:57:37.076Z,63.13
2019-02-20T14:00:08.795Z,62.79
2019-02-20T14:02:37.376Z,62.83
2019-02-20T14:05:07.798Z,62.86
2019-02-20T14:07:36.453Z,62.56
2019-02-20T14:10:08.066Z,62.61
2019-02-20T14:12:38.143Z,62.98
2019-02-20T14:15:09.262Z,63.30
2019-02-20T14:17:37.852Z,63.38
2019-02-20T14:20:09.244Z,63.22
2019-02-20T14:22:37.997Z,62.93
2019-02-20T14:25:08.642Z,62.90
2019-02-20T14:27:37.245Z,62.96
2019-02-20T14:30:08.548Z,62.94
2019-02-20T14:32:37.118Z,62.89
2019-02-20T14:35:07.523Z,62.87
2019-02-20T14:37:36.640Z,62.88
2019-02-20T14:40:07.270Z,62.68
2019-02-20T14:42:36.322Z,63.12
2019-02-20T14:45:08.172Z,63.22
2019-02-20T14:47:36.762Z,63.15
2019-02-20T14:50:08.305Z,62.89
2019-02-20T14:52:37.172Z,63.13
2019-02-20T14:55:07.978Z,63.61
2019-02-20T14:57:36.547Z,63.77
2019-02-20T15:00:08.540Z,63.68
2019-02-20T15:02:37.124Z,63.99
2019-02-20T15:05:06.753Z,63.81
2019-02-20T15:07:35.598Z,63.99
2019-02-20T15:10:05.507Z,64.15
2019-02-20T15:12:34.087Z,63.69
2019-02-20T15:15:10.310Z,63.53
2019-02-20T15:17:33.020Z,63.99
2019-02-20T15:20:01.620Z,63.55
2019-02-20T15:22:30.196Z,63.46
2019-02-20T15:24:58.781Z,64.04
2019-02-20T15:27:28.863Z,64.04
2019-02-20T15:29:57.708Z,64.27
2019-02-20T15:32:26.295Z,64.27
2019-02-20T15:34:54.852Z,64.48
2019-02-20T15:37:23.409Z,64.48
2019-02-20T15:39:52.312Z,64.26
2019-02-20T15:42:20.867Z,64.17
2019-02-20T15:44:49.469Z,64.73
2019-02-20T15:47:18.052Z,65.04
2019-02-20T15:49:46.620Z,64.28
2019-02-20T15:52:15.211Z,64.65
2019-02-20T15:54:43.803Z,65.13
2019-02-20T15:57:12.542Z,64.79
2019-02-20T15:59:42.656Z,65.60
2019-02-20T16:02:11.231Z,65.32
2019-02-20T16:04:39.886Z,64.64
2019-02-20T16:07:08.483Z,64.90
2019-02-20T16:09:37.067Z,65.08
2019-02-20T16:12:05.907Z,65.02
2019-02-20T16:14:34.489Z,65.46
2019-02-20T16:17:03.076Z,65.25
2019-02-20T16:19:31.642Z,65.70
2019-02-20T16:22:00.226Z,65.97
2019-02-20T16:24:28.800Z,65.97
2019-02-20T16:26:57.368Z,66.01
2019-02-20T16:29:26.312Z,66.01
2019-02-20T16:31:54.910Z,66.03
2019-02-20T16:34:23.472Z,66.04
2019-02-20T16:36:52.037Z,66.24
2019-02-20T16:39:20.605Z,66.24
2019-02-20T16:41:49.167Z,66.99
2019-02-20T16:44:17.748Z,66.99
2019-02-20T16:46:48.312Z,66.84
2019-02-20T16:49:16.714Z,67.12
2019-02-20T16:51:45.281Z,67.12
2019-02-20T16:54:13.857Z,66.71
2019-02-20T16:56:42.444Z,66.96
2019-02-20T16:59:11.007Z,66.96
2019-02-20T17:01:40.130Z,66.94
2019-02-20T17:04:08.694Z,66.94
2019-02-20T17:06:37.296Z,66.79
2019-02-20T17:09:07.679Z,67.12
2019-02-20T17:11:36.257Z,67.12
2019-02-20T17:14:04.898Z,68.04
2019-02-20T17:16:33.441Z,68.20
2019-02-20T17:19:02.192Z,67.18
2019-02-20T17:21:30.784Z,66.79
2019-02-20T17:23:59.388Z,66.59
2019-02-20T17:26:27.956Z,66.59
2019-02-20T17:28:56.615Z,67.27
2019-02-20T17:31:25.187Z,67.56
2019-02-20T17:33:54.074Z,67.30
2019-02-20T17:36:22.638Z,67.69
2019-02-20T17:38:51.301Z,68.03
2019-02-20T17:41:19.904Z,68.03
2019-02-20T17:43:48.482Z,67.62
2019-02-20T17:46:18.666Z,67.81
2019-02-20T17:48:47.426Z,67.74
2019-02-20T17:51:16.029Z,67.74
2019-02-20T17:53:44.594Z,67.84
2019-02-20T17:56:13.150Z,67.84
2019-02-20T17:58:42.694Z,67.09
2019-02-20T18:01:13.343Z,66.98
2019-02-20T18:03:41.938Z,66.98
2019-02-20T18:06:10.533Z,67.06
2019-02-20T18:08:39.120Z,66.87
2019-02-20T18:11:07.708Z,66.87
2019-02-20T18:13:36.266Z,67.44
2019-02-20T18:16:04.838Z,67.44
2019-02-20T18:18:33.403Z,67.35
2019-02-20T18:21:02.019Z,67.85
2019-02-20T18:23:30.596Z,67.85
2019-02-20T18:25:59.175Z,67.60
2019-02-20T18:28:27.772Z,67.60
2019-02-20T18:30:56.332Z,67.29
2019-02-20T18:33:24.913Z,67.29
2019-02-20T18:35:53.505Z,67.49
2019-02-20T18:38:22.076Z,67.74
2019-02-20T18:40:50.661Z,67.74
2019-02-20T18:43:19.234Z,67.47
2019-02-20T18:45:47.833Z,67.62
2019-02-20T18:48:16.437Z,67.55
2019-02-20T18:50:45.007Z,67.55
2019-02-20T18:53:13.593Z,67.71
2019-02-20T18:55:42.179Z,67.77
2019-02-20T18:58:10.836Z,68.15
2019-02-20T19:00:39.428Z,68.15
2019-02-20T19:03:08.066Z,67.93
2019-02-20T19:05:37.044Z,67.93
2019-02-20T19:08:24.922Z,68.51
2019-02-20T19:10:56.551Z,68.13
2019-02-20T19:13:50.470Z,68.13
2019-02-20T19:16:38.894Z,67.90
2019-02-20T19:19:19.224Z,67.82
2019-02-20T19:21:59.843Z,67.83
2019-02-20T19:24:46.635Z,68.25
2019-02-20T19:27:24.018Z,68.25
2019-02-20T19:29:58.414Z,67.46
2019-02-20T19:32:41.935Z,67.46
2019-02-20T19:35:34.555Z,67.62
2019-02-20T19:38:28.557Z,67.94
2019-02-20T19:41:06.259Z,67.86
2019-02-20T19:43:43.672Z,67.44
2019-02-20T19:46:48.950Z,67.44
2019-02-20T19:49:38.751Z,68.09
2019-02-20T19:52:10.413Z,67.72
2019-02-20T19:54:47.759Z,67.01
2019-02-20T19:57:25.115Z,67.37
2019-02-20T20:00:12.728Z,66.94
2019-02-20T20:02:47.039Z,67.06
2019-02-20T20:05:32.498Z,66.92
2019-02-20T20:08:23.749Z,67.23
2019-02-20T20:10:55.410Z,66.96
2019-02-20T20:13:32.783Z,66.93
2019-02-20T20:16:13.647Z,66.93
2019-02-20T20:19:10.231Z,67.11
2019-02-20T20:21:47.411Z,66.93
2019-02-20T20:24:30.894Z,66.69
2019-02-20T20:27:08.256Z,66.96
2019-02-20T20:29:48.903Z,66.97
2019-02-20T20:32:26.104Z,66.87
2019-02-20T20:35:12.459Z,66.63
2019-02-20T20:37:49.956Z,67.12
2019-02-20T20:40:30.889Z,66.75
2019-02-20T20:43:10.927Z,66.16
2019-02-20T20:45:51.547Z,66.37
2019-02-20T20:48:32.139Z,66.42
2019-02-20T20:51:09.569Z,66.27
2019-02-20T20:53:58.492Z,66.57
2019-02-20T20:56:39.105Z,66.29
2019-02-20T20:59:22.210Z,66.21
2019-02-20T21:01:55.142Z,66.26
2019-02-20T21:04:34.151Z,66.63
2019-02-20T21:07:24.175Z,66.66
2019-02-20T21:09:55.890Z,66.61
2019-02-20T21:12:27.497Z,66.20
2019-02-20T21:14:59.186Z,66.37
2019-02-20T21:17:39.727Z,66.37
2019-02-20T21:20:11.425Z,66.74
2019-02-20T21:22:55.015Z,66.64
2019-02-20T21:25:44.773Z,67.04
2019-02-20T21:28:17.114Z,67.08
2019-02-20T21:31:06.719Z,67.07
2019-02-20T21:34:11.517Z,67.02
2019-02-20T21:36:51.987Z,67.28
2019-02-20T21:39:32.983Z,67.11
2019-02-20T21:42:21.354Z,66.93
2019-02-20T21:45:01.656Z,66.98
2019-02-20T21:47:43.442Z,67.37
2019-02-20T21:50:33.210Z,67.22
2019-02-20T21:53:13.453Z,67.23
2019-02-20T21:56:07.309Z,67.50
2019-02-20T21:58:55.713Z,67.56
2019-02-20T22:01:35.866Z,67.30
2019-02-20T22:04:23.981Z,67.87
2019-02-20T22:07:17.117Z,67.45
2019-02-20T22:10:01.419Z,67.74
2019-02-20T22:12:36.829Z,67.74
2019-02-20T22:15:20.342Z,67.83
2019-02-20T22:17:54.399Z,68.57
2019-02-20T22:20:48.542Z,69.05
2019-02-20T22:23:25.675Z,69.31
2019-02-20T22:26:05.944Z,68.92
2019-02-20T22:28:49.058Z,69.60
2019-02-20T22:31:55.883Z,69.33
2019-02-20T22:34:38.888Z,69.05
2019-02-20T22:37:28.773Z,69.31
2019-02-20T22:40:19.548Z,69.94
2019-02-20T22:43:14.908Z,69.84
2019-02-20T22:45:52.195Z,70.53
2019-02-20T22:48:30.771Z,70.02
2019-02-20T22:51:24.689Z,70.53
2019-02-20T22:54:04.948Z,70.22
2019-02-20T22:56:39.333Z,70.19
2019-02-20T22:59:31.904Z,69.60
2019-02-20T23:02:09.448Z,70.04
2019-02-20T23:04:46.873Z,69.81
2019-02-20T23:07:18.509Z,69.78
2019-02-20T23:09:56.379Z,69.07
2019-02-20T23:12:49.507Z,69.25
2019-02-20T23:15:18.074Z,69.51
2019-02-20T23:17:46.658Z,69.80
2019-02-20T23:20:15.220Z,69.71
2019-02-20T23:22:43.777Z,69.93
2019-02-20T23:25:12.380Z,69.44
2019-02-20T23:27:40.950Z,69.21
2019-02-20T23:30:13.144Z,69.18
2019-02-20T23:32:43.263Z,68.81
2019-02-20T23:35:12.118Z,68.37
2019-02-20T23:37:40.677Z,68.41
2019-02-20T23:40:10.285Z,68.52
2019-02-20T23:42:38.848Z,68.65
2019-02-20T23:45:09.071Z,68.66
2019-02-20T23:47:37.699Z,68.76
2019-02-20T23:50:07.918Z,69.91
2019-02-20T23:52:36.471Z,69.50
2019-02-20T23:55:06.486Z,69.31
2019-02-20T23:57:35.108Z,69.18
